createdAt,value
2022-11-04T00:02:43.617Z,18.38
2022-11-04T00:08:07.571Z,15.50
2022-11-04T00:13:16.832Z,19.05
2022-11-04T00:18:23.395Z,17.80
2022-11-04T00:23:50.045Z,23.40
2022-11-04T00:28:57.969Z,17.23
2022-11-04T00:34:04.858Z,22.60
2022-11-04T00:39:11.849Z,29.23
2022-11-04T00:44:19.896Z,18.48
2022-11-04T00:49:26.361Z,20.05
2022-11-04T00:54:32.840Z,21.98
2022-11-04T00:59:41.060Z,19.23
2022-11-04T01:04:48.898Z,19.37
2022-11-04T01:09:55.780Z,16.85
2022-11-04T01:15:03.826Z,18.13
2022-11-04T01:20:13.754Z,19.73
2022-11-04T01:25:20.526Z,25.58
2022-11-04T01:30:28.667Z,12.50
2022-11-04T01:35:35.349Z,14.13
2022-11-04T01:40:42.683Z,17.27
2022-11-04T01:45:55.293Z,14.93
2022-11-04T01:51:02.640Z,16.67
2022-11-04T01:56:14.626Z,15.52
2022-11-04T02:01:22.996Z,13.55
2022-11-04T02:06:29.531Z,16.47
2022-11-04T02:11:53.408Z,21.00
2022-11-04T02:17:14.758Z,17.02
2022-11-04T02:23:09.395Z,16.92
2022-11-04T02:28:47.795Z,20.50
2022-11-04T02:34:06.848Z,16.48
2022-11-04T02:39:26.558Z,23.00
2022-11-04T02:44:37.132Z,17.80
2022-11-04T02:49:53.251Z,16.00
2022-11-04T02:55:06.177Z,17.27
2022-11-04T03:00:15.940Z,14.75
2022-11-04T03:05:28.571Z,14.57
2022-11-04T03:10:40.377Z,20.42
2022-11-04T03:15:53.920Z,14.50
2022-11-04T03:21:07.675Z,16.30
2022-11-04T03:26:35.561Z,15.00
2022-11-04T03:31:49.238Z,16.52
2022-11-04T03:36:57.555Z,11.18
2022-11-04T03:42:20.901Z,13.37
2022-11-04T03:47:31.201Z,11.68
2022-11-04T03:52:40.147Z,12.80
2022-11-04T03:57:53.819Z,18.98
2022-11-04T04:03:10.629Z,11.82
2022-11-04T04:08:30.625Z,15.68
2022-11-04T04:13:42.852Z,16.77
2022-11-04T04:18:57.554Z,14.68
2022-11-04T04:24:28.478Z,12.75
2022-11-04T04:29:35.552Z,14.07
2022-11-04T04:34:42.379Z,16.55
2022-11-04T04:40:13.026Z,12.27
2022-11-04T04:45:26.766Z,14.00
2022-11-04T04:50:42.675Z,13.98
2022-11-04T04:55:50.590Z,9.75
2022-11-04T05:00:57.212Z,13.82
2022-11-04T05:06:03.630Z,13.55
2022-11-04T05:11:11.845Z,18.55
2022-11-04T05:16:18.559Z,12.85
2022-11-04T05:21:25.142Z,12.20
2022-11-04T05:26:33.184Z,16.63
2022-11-04T05:31:39.792Z,13.70
2022-11-04T05:36:46.138Z,15.95
2022-11-04T05:41:54.073Z,10.63
2022-11-04T05:47:00.845Z,13.77
2022-11-04T05:52:08.569Z,13.55
2022-11-04T05:57:16.286Z,13.13
2022-11-04T06:02:23.151Z,9.45
2022-11-04T06:07:29.955Z,14.63
2022-11-04T06:12:37.868Z,13.65
2022-11-04T06:17:44.481Z,10.35
2022-11-04T06:22:51.772Z,19.52
2022-11-04T06:28:00.168Z,18.77
2022-11-04T06:33:06.767Z,14.70
2022-11-04T06:38:13.474Z,11.82
2022-11-04T06:43:21.480Z,10.98
2022-11-04T06:48:28.625Z,13.43
2022-11-04T06:53:35.061Z,9.88
2022-11-04T06:58:43.466Z,13.52
2022-11-04T07:03:52.640Z,14.50
2022-11-04T07:09:01.992Z,10.85
2022-11-04T07:14:11.663Z,16.42
2022-11-04T07:19:18.420Z,9.82
2022-11-04T07:24:25.233Z,11.48
2022-11-04T07:29:33.115Z,7.75
2022-11-04T07:34:39.647Z,13.05
2022-11-04T07:39:46.015Z,11.52
2022-11-04T07:44:53.831Z,10.77
2022-11-04T07:50:01.450Z,12.43
2022-11-04T07:55:14.344Z,13.73
2022-11-04T08:00:22.276Z,13.07
2022-11-04T08:05:28.344Z,9.05
2022-11-04T08:10:34.843Z,9.50
2022-11-04T08:15:42.692Z,11.57
2022-11-04T08:20:52.751Z,10.43
2022-11-04T08:25:59.414Z,12.82
2022-11-04T08:31:09.623Z,18.23
2022-11-04T08:36:19.748Z,15.20
2022-11-04T08:41:29.358Z,15.35
2022-11-04T08:46:40.263Z,14.23
2022-11-04T08:51:49.974Z,13.77
2022-11-04T08:56:56.214Z,14.05
2022-11-04T09:02:07.217Z,18.42
2022-11-04T09:07:14.112Z,11.23
2022-11-04T09:12:20.913Z,15.18
2022-11-04T09:17:29.129Z,15.98
2022-11-04T09:22:36.015Z,15.40
2022-11-04T09:27:42.731Z,18.00
2022-11-04T09:32:52.907Z,12.27
2022-11-04T09:38:02.654Z,10.50
2022-11-04T09:43:28.167Z,14.10
2022-11-04T09:48:42.259Z,14.07
2022-11-04T09:53:53.149Z,13.95
2022-11-04T09:58:59.924Z,12.93
2022-11-04T10:04:26.861Z,15.23
2022-11-04T10:09:46.909Z,11.27
2022-11-04T10:15:32.897Z,13.75
2022-11-04T10:20:54.751Z,12.60
2022-11-04T10:26:10.916Z,15.32
2022-11-04T10:31:22.960Z,13.38
2022-11-04T10:36:31.256Z,13.77
2022-11-04T10:41:41.116Z,12.03
2022-11-04T10:46:57.927Z,11.32
2022-11-04T10:52:06.004Z,18.35
2022-11-04T10:57:13.508Z,15.07
2022-11-04T11:02:20.698Z,15.10
2022-11-04T11:07:39.198Z,11.48
2022-11-04T11:12:52.035Z,20.53
2022-11-04T11:18:15.365Z,16.05
2022-11-04T11:23:47.646Z,13.43
2022-11-04T11:28:59.540Z,12.30
2022-11-04T11:34:15.803Z,12.07
2022-11-04T11:39:28.410Z,10.00
2022-11-04T11:44:44.573Z,12.60
2022-11-04T11:50:08.229Z,11.75
2022-11-04T12:01:03.171Z,11.50
2022-11-04T12:06:31.224Z,10.25
2022-11-04T12:11:54.355Z,16.05
2022-11-04T12:17:16.431Z,17.60
2022-11-04T12:22:35.757Z,14.80
2022-11-04T12:27:53.978Z,11.25
2022-11-04T12:33:22.669Z,12.73
2022-11-04T12:38:51.464Z,22.35
2022-11-04T12:44:07.913Z,17.75
2022-11-04T12:49:52.565Z,30.85
2022-11-04T12:55:19.864Z,26.30
2022-11-04T13:00:28.749Z,22.05
2022-11-04T13:05:45.846Z,10.23
2022-11-04T13:10:59.007Z,14.60
2022-11-04T13:16:12.515Z,13.48
2022-11-04T13:21:23.826Z,16.13
2022-11-04T13:26:30.142Z,12.85
2022-11-04T13:31:50.755Z,15.35
2022-11-04T13:37:11.555Z,14.93
2022-11-04T13:42:48.773Z,12.57
2022-11-04T13:47:59.986Z,13.02
2022-11-04T13:53:07.810Z,12.52
2022-11-04T13:58:25.518Z,13.60
2022-11-04T14:03:54.274Z,15.65
2022-11-04T14:09:53.975Z,16.73
2022-11-04T14:15:18.561Z,17.90
2022-11-04T14:20:34.384Z,12.20
2022-11-04T14:25:42.204Z,17.08
2022-11-04T14:30:52.556Z,15.30
2022-11-04T14:36:31.515Z,16.95
2022-11-04T14:47:15.504Z,19.58
2022-11-04T14:52:31.299Z,12.20
2022-11-04T14:57:43.803Z,18.58
2022-11-04T15:02:59.855Z,16.52
2022-11-04T15:08:33.388Z,20.13
2022-11-04T15:13:47.561Z,13.50
2022-11-04T15:18:54.947Z,13.88
2022-11-04T15:24:03.310Z,13.65
2022-11-04T15:29:13.032Z,27.10
2022-11-04T15:34:20.056Z,24.08
2022-11-04T15:39:33.187Z,28.30
2022-11-04T15:44:46.671Z,20.70
2022-11-04T15:49:56.708Z,28.30
2022-11-04T15:55:06.063Z,25.23
2022-11-04T16:00:26.163Z,19.83
2022-11-04T16:05:35.917Z,31.70
2022-11-04T16:10:44.598Z,22.90
2022-11-04T16:15:53.550Z,24.60
2022-11-04T16:21:01.232Z,25.52
2022-11-04T16:26:12.758Z,31.58
2022-11-04T16:31:30.470Z,29.30
2022-11-04T16:36:36.648Z,20.83
2022-11-04T16:41:44.707Z,19.05
2022-11-04T16:46:51.504Z,19.57
2022-11-04T16:52:03.011Z,21.45
2022-11-04T16:57:14.850Z,19.42
2022-11-04T17:02:28.065Z,18.58
2022-11-04T17:07:52.090Z,16.40
2022-11-04T17:13:01.531Z,16.73
2022-11-04T17:18:08.464Z,24.35
2022-11-04T17:23:17.833Z,25.88
2022-11-04T17:28:27.481Z,25.08
2022-11-04T17:33:34.513Z,18.98
2022-11-04T17:38:41.158Z,18.27
2022-11-04T17:44:03.819Z,23.80
2022-11-04T17:56:05.865Z,22.83
2022-11-04T18:01:17.758Z,21.67
2022-11-04T18:06:25.401Z,20.13
2022-11-04T18:11:50.392Z,21.20
2022-11-04T18:17:25.176Z,22.27
2022-11-04T18:22:57.842Z,16.40
2022-11-04T18:28:10.881Z,22.33
2022-11-04T18:39:20.898Z,20.48
2022-11-04T18:44:31.653Z,21.77
2022-11-04T18:49:49.610Z,25.17
2022-11-04T18:54:58.749Z,32.83
2022-11-04T19:00:10.562Z,27.23
2022-11-04T19:05:21.262Z,27.00
2022-11-04T19:10:31.114Z,31.73
2022-11-04T19:15:38.334Z,20.80
2022-11-04T19:20:54.777Z,25.83
2022-11-04T19:26:08.497Z,19.75
2022-11-04T19:31:18.239Z,18.95
2022-11-04T19:36:26.885Z,16.17
2022-11-04T19:41:53.438Z,24.43
2022-11-04T19:47:00.416Z,25.25
2022-11-04T19:52:09.549Z,26.80
2022-11-04T19:57:18.543Z,22.52
2022-11-04T20:02:25.732Z,17.05
2022-11-04T20:07:33.917Z,18.00
2022-11-04T20:13:01.760Z,30.52
2022-11-04T20:18:17.774Z,26.65
2022-11-04T20:23:25.082Z,23.88
2022-11-04T20:28:33.633Z,27.33
2022-11-04T20:34:57.855Z,22.83
2022-11-04T20:40:11.894Z,23.10
2022-11-04T20:45:24.415Z,22.10
2022-11-04T20:50:32.648Z,18.65
2022-11-04T20:55:41.984Z,21.17
2022-11-04T21:00:53.899Z,35.15
2022-11-04T21:06:05.995Z,28.63
2022-11-04T21:11:17.134Z,23.33
2022-11-04T21:16:35.667Z,22.40
2022-11-04T21:21:45.702Z,18.48
2022-11-04T21:26:56.803Z,18.98
2022-11-04T21:32:09.949Z,17.05
2022-11-04T21:37:16.668Z,18.48
2022-11-04T21:42:23.567Z,24.00
2022-11-04T21:47:31.854Z,26.83
2022-11-04T21:52:38.162Z,18.67
2022-11-04T21:57:45.283Z,18.75
2022-11-04T22:02:53.669Z,21.77
2022-11-04T22:08:19.043Z,17.67
2022-11-04T22:13:26.352Z,16.67
2022-11-04T22:18:36.054Z,17.70
2022-11-04T22:23:43.020Z,18.08
2022-11-04T22:28:50.015Z,14.82
2022-11-04T22:33:59.022Z,17.60
2022-11-04T22:39:06.826Z,18.48
2022-11-04T22:44:14.562Z,16.95
2022-11-04T22:49:22.517Z,18.75
2022-11-04T22:54:28.687Z,14.95
2022-11-04T22:59:34.822Z,21.80
2022-11-04T23:04:45.375Z,16.00
2022-11-04T23:10:09.091Z,15.13
2022-11-04T23:15:32.201Z,19.30
2022-11-04T23:20:40.396Z,15.50
2022-11-04T23:25:47.010Z,17.13
2022-11-04T23:30:54.572Z,17.85
2022-11-04T23:36:19.748Z,18.70
2022-11-04T23:41:42.787Z,26.63
2022-11-04T23:47:06.064Z,22.38
2022-11-04T23:52:30.499Z,24.73
2022-11-04T23:57:55.419Z,19.75
